Time;durP1;ratioP1;P1;durP2;ratioP2;P2;SDS_P1;SDS_P2;PMS_P1;PMS_P2;Temp;Humidity;BMP_temperature;BMP_pressure;BME280_temperature;BME280_humidity;BME280_pressure;Samples;Min_cycle;Max_cycle;Signal;HPM_P1;HPM_P2
2021/04/25 00:01:29;;;;;;;8.57;5.93;;;5.40;1.00;;;;;;5118248;27;20364;-81
2021/04/25 00:03:55;;;;;;;7.40;6.00;;;5.40;1.00;;;;;;5115611;27;20219;-80
2021/04/25 00:06:22;;;;;;;6.10;3.45;;;5.30;1.00;;;;;;5100864;27;20391;-80
2021/04/25 00:08:48;;;;;;;7.18;5.40;;;5.30;1.00;;;;;;5119019;27;20211;-80
2021/04/25 00:11:15;;;;;;;6.10;5.60;;;5.30;1.00;;;;;;5117159;27;20220;-80
2021/04/25 00:13:43;;;;;;;5.22;4.82;;;5.30;1.00;;;;;;5114656;27;20241;-80
2021/04/25 00:16:10;;;;;;;7.65;5.80;;;5.30;1.00;;;;;;5102396;27;20227;-82
2021/04/25 00:18:39;;;;;;;4.65;4.20;;;5.30;1.00;;;;;;5114280;27;20242;-81
2021/04/25 00:21:05;;;;;;;5.05;3.90;;;5.30;1.00;;;;;;5127351;27;20227;-80
2021/04/25 00:23:31;;;;;;;5.28;4.68;;;5.40;1.00;;;;;;5118102;27;20216;-81
2021/04/25 00:25:58;;;;;;;7.28;4.43;;;5.40;1.00;;;;;;5127563;27;20259;-80
2021/04/25 00:28:24;;;;;;;6.65;3.80;;;5.40;1.00;;;;;;5141940;27;20239;-81
2021/04/25 00:30:51;;;;;;;5.50;3.70;;;5.40;1.00;;;;;;5136714;27;20224;-80
2021/04/25 00:33:18;;;;;;;4.57;4.18;;;5.40;1.00;;;;;;5106061;27;21226;-81
2021/04/25 00:35:45;;;;;;;8.05;5.38;;;5.50;1.00;;;;;;5127656;27;20225;-81
2021/04/25 00:38:11;;;;;;;5.35;4.60;;;5.50;1.00;;;;;;5125186;27;20218;-80
2021/04/25 00:40:41;;;;;;;6.10;4.82;;;5.40;1.00;;;;;;5101002;27;20227;-80
2021/04/25 00:43:07;;;;;;;5.00;4.60;;;5.50;1.00;;;;;;5117338;27;20229;-80
2021/04/25 00:45:33;;;;;;;5.53;3.90;;;5.50;1.00;;;;;;5121040;27;20223;-81
2021/04/25 00:48:00;;;;;;;7.90;5.00;;;5.50;1.00;;;;;;5118748;27;20230;-82
2021/04/25 00:50:27;;;;;;;7.13;4.95;;;5.40;1.00;;;;;;5133396;27;20218;-80
2021/04/25 00:52:57;;;;;;;19.98;16.48;;;5.50;1.00;;;;;;5119856;27;20266;-80
2021/04/25 00:55:26;;;;;;;8.25;5.72;;;5.50;1.00;;;;;;5114833;27;20240;-81
2021/04/25 00:57:54;;;;;;;6.68;4.40;;;5.50;1.00;;;;;;5118832;27;20215;-81
2021/04/25 01:00:25;;;;;;;6.25;5.40;;;5.50;1.00;;;;;;5099932;27;20238;-80
2021/04/25 01:02:51;;;;;;;6.90;6.25;;;5.50;1.00;;;;;;5099180;27;20238;-79
2021/04/25 01:05:19;;;;;;;9.60;8.80;;;5.50;1.00;;;;;;5119992;27;20958;-80
2021/04/25 01:07:46;;;;;;;6.07;5.55;;;5.50;1.00;;;;;;5105989;27;20281;-80
2021/04/25 01:10:14;;;;;;;6.18;4.57;;;5.50;1.00;;;;;;5119204;27;20235;-80
2021/04/25 01:12:41;;;;;;;4.43;3.20;;;5.50;1.00;;;;;;5101564;27;20223;-81
2021/04/25 01:15:10;;;;;;;9.55;5.18;;;5.60;1.00;;;;;;5103758;27;20211;-80
2021/04/25 01:17:39;;;;;;;6.40;4.50;;;5.60;1.00;;;;;;5106709;27;20295;-80
2021/04/25 01:20:08;;;;;;;4.30;3.60;;;5.60;1.00;;;;;;5108490;27;20290;-80
2021/04/25 01:22:35;;;;;;;6.18;5.22;;;5.60;1.00;;;;;;5135384;27;20723;-82
2021/04/25 01:25:02;;;;;;;5.07;4.22;;;5.70;1.00;;;;;;5118579;27;20237;-82
2021/04/25 01:27:28;;;;;;;4.80;4.13;;;5.70;1.00;;;;;;5132714;27;20219;-81
2021/04/25 01:29:54;;;;;;;6.10;4.10;;;5.70;1.00;;;;;;5131249;27;20230;-80
2021/04/25 01:32:21;;;;;;;4.75;4.30;;;5.70;1.00;;;;;;5122990;27;20226;-79
2021/04/25 01:34:47;;;;;;;5.97;4.10;;;5.80;1.00;;;;;;5125137;27;20211;-80
2021/04/25 01:37:15;;;;;;;4.60;4.18;;;5.80;1.00;;;;;;5104789;27;20237;-81
2021/04/25 01:39:42;;;;;;;4.50;3.60;;;5.90;1.00;;;;;;5122351;27;20272;-80
2021/04/25 01:42:08;;;;;;;5.82;4.28;;;6.00;1.00;;;;;;5128985;27;20230;-79
2021/04/25 01:44:37;;;;;;;4.82;3.60;;;6.00;1.00;;;;;;5128830;27;20213;-80
2021/04/25 01:47:04;;;;;;;4.93;4.43;;;6.00;1.00;;;;;;5115133;27;20846;-80
2021/04/25 01:49:30;;;;;;;5.85;5.05;;;6.00;1.00;;;;;;5106947;27;20223;-80
2021/04/25 01:51:56;;;;;;;9.65;8.05;;;6.00;1.00;;;;;;5107319;27;20324;-78
2021/04/25 01:54:23;;;;;;;9.52;7.90;;;6.00;1.00;;;;;;5130801;27;21191;-80
2021/04/25 01:56:51;;;;;;;9.05;5.22;;;6.10;1.00;;;;;;5124510;27;20223;-80
2021/04/25 01:59:18;;;;;;;12.52;11.13;;;6.10;1.00;;;;;;5126581;27;20485;-79
2021/04/25 02:01:44;;;;;;;9.13;6.78;;;6.10;1.00;;;;;;5127179;27;20223;-80
2021/04/25 02:04:12;;;;;;;4.53;4.00;;;6.20;1.00;;;;;;5113063;27;20285;-79
2021/04/25 02:06:42;;;;;;;5.18;3.67;;;6.20;1.00;;;;;;5126001;27;20223;-79
2021/04/25 02:09:09;;;;;;;5.40;3.20;;;6.20;1.00;;;;;;5113533;27;20219;-81
2021/04/25 02:11:36;;;;;;;3.88;3.17;;;6.20;1.00;;;;;;5124342;27;20819;-81
2021/04/25 02:14:04;;;;;;;4.13;3.55;;;6.20;1.00;;;;;;5129023;27;20207;-79
2021/04/25 02:16:31;;;;;;;5.85;3.70;;;6.30;1.00;;;;;;5124261;27;20281;-80
2021/04/25 02:19:01;;;;;;;3.40;3.10;;;6.30;1.00;;;;;;5125311;27;20384;-80
2021/04/25 02:21:28;;;;;;;4.20;3.80;;;6.30;1.00;;;;;;5125594;27;20245;-79
2021/04/25 02:23:55;;;;;;;4.65;3.40;;;6.30;1.00;;;;;;5114121;27;20214;-80
2021/04/25 02:26:22;;;;;;;6.72;4.55;;;6.30;1.00;;;;;;5130674;27;20231;-80
2021/04/25 02:28:49;;;;;;;4.72;3.45;;;6.30;1.00;;;;;;5126805;27;20292;-79
2021/04/25 02:31:17;;;;;;;4.38;3.30;;;6.40;1.00;;;;;;5114334;27;20227;-79
2021/04/25 02:33:43;;;;;;;4.85;3.53;;;6.40;1.00;;;;;;5130464;27;20224;-79
2021/04/25 02:36:13;;;;;;;4.18;3.78;;;6.50;1.00;;;;;;5131482;27;20219;-79
2021/04/25 02:38:39;;;;;;;4.30;3.10;;;6.50;1.00;;;;;;5129153;27;20230;-79
2021/04/25 02:41:08;;;;;;;4.03;3.47;;;6.50;1.00;;;;;;5137731;27;20225;-80
2021/04/25 02:43:35;;;;;;;4.65;3.00;;;6.50;1.00;;;;;;5129720;27;20215;-80
2021/04/25 02:46:01;;;;;;;5.20;3.70;;;6.40;1.00;;;;;;5128466;27;20233;-81
2021/04/25 02:48:28;;;;;;;5.03;3.70;;;6.30;1.00;;;;;;5144690;27;20223;-79
2021/04/25 02:50:55;;;;;;;4.75;3.45;;;6.20;1.00;;;;;;5101321;27;20226;-81
2021/04/25 02:53:21;;;;;;;5.38;3.58;;;6.10;1.00;;;;;;5106423;27;20226;-79
2021/04/25 02:55:47;;;;;;;6.05;4.15;;;6.00;1.00;;;;;;5123717;27;20255;-80
2021/04/25 02:58:13;;;;;;;4.22;3.17;;;5.90;1.00;;;;;;5131899;27;20210;-80
2021/04/25 03:00:40;;;;;;;4.43;3.50;;;5.80;1.00;;;;;;5132649;27;20227;-81
2021/04/25 03:03:07;;;;;;;3.72;3.38;;;5.70;1.00;;;;;;5124890;27;21336;-80
2021/04/25 03:05:34;;;;;;;4.63;3.00;;;5.70;1.00;;;;;;5128076;27;20250;-81
2021/04/25 03:08:01;;;;;;;5.68;4.30;;;5.60;1.00;;;;;;5126794;27;20214;-79
2021/04/25 03:10:28;;;;;;;3.50;3.20;;;5.60;1.00;;;;;;5132487;27;20230;-80
2021/04/25 03:12:54;;;;;;;4.40;3.30;;;5.50;1.00;;;;;;5123886;27;20229;-81
2021/04/25 03:15:22;;;;;;;5.20;3.90;;;5.50;1.00;;;;;;5120777;27;20226;-81
2021/04/25 03:17:49;;;;;;;4.65;3.28;;;5.40;1.00;;;;;;5125814;27;20293;-81
2021/04/25 03:20:18;;;;;;;5.10;2.88;;;5.30;1.00;;;;;;5101900;27;20230;-79
2021/04/25 03:22:46;;;;;;;3.70;3.40;;;5.30;1.00;;;;;;5105671;27;20261;-79
2021/04/25 03:25:14;;;;;;;4.43;3.55;;;5.40;1.00;;;;;;5117268;27;20256;-81
2021/04/25 03:27:41;;;;;;;4.75;3.58;;;5.40;1.00;;;;;;5100716;27;20223;-81
2021/04/25 03:30:10;;;;;;;5.85;3.45;;;5.40;1.00;;;;;;5121885;27;20269;-80
2021/04/25 03:32:37;;;;;;;5.35;3.85;;;5.50;1.00;;;;;;5118257;27;20218;-81
2021/04/25 03:35:05;;;;;;;3.40;2.70;;;5.50;1.00;;;;;;5134664;27;20219;-79
2021/04/25 03:37:31;;;;;;;3.95;3.55;;;5.50;1.00;;;;;;5114211;27;20305;-79
2021/04/25 03:39:58;;;;;;;4.05;3.65;;;5.50;1.00;;;;;;5138760;27;20234;-82
2021/04/25 03:42:24;;;;;;;5.38;2.90;;;5.60;1.00;;;;;;5130038;27;20253;-81
2021/04/25 03:44:51;;;;;;;5.05;3.65;;;5.70;1.00;;;;;;5152259;27;20207;-82
2021/04/25 03:47:17;;;;;;;5.70;3.38;;;5.70;1.00;;;;;;5143740;27;20234;-82
2021/04/25 03:49:43;;;;;;;3.90;3.60;;;5.90;1.00;;;;;;5149695;27;20211;-81
2021/04/25 03:52:09;;;;;;;5.15;4.65;;;5.90;1.00;;;;;;5145747;27;20212;-81
2021/04/25 03:54:36;;;;;;;3.75;3.40;;;6.00;1.00;;;;;;5139219;27;20218;-81
2021/04/25 03:57:05;;;;;;;4.43;3.92;;;6.00;1.00;;;;;;5124378;27;20286;-81
2021/04/25 03:59:31;;;;;;;5.85;4.55;;;6.00;1.00;;;;;;5125538;27;20259;-80
2021/04/25 04:01:58;;;;;;;4.30;3.78;;;6.10;1.00;;;;;;5120841;27;20215;-80
2021/04/25 04:04:24;;;;;;;5.40;4.10;;;6.10;1.00;;;;;;5125715;27;20232;-79
2021/04/25 04:06:50;;;;;;;5.18;4.05;;;6.10;1.00;;;;;;5107823;27;20247;-79
2021/04/25 04:09:17;;;;;;;4.85;4.38;;;6.10;1.00;;;;;;5126607;27;20211;-80
2021/04/25 04:11:44;;;;;;;5.10;4.15;;;6.10;1.00;;;;;;5127660;27;21399;-81
2021/04/25 04:14:11;;;;;;;5.25;4.75;;;6.10;1.00;;;;;;5125447;27;20227;-80
2021/04/25 04:16:37;;;;;;;7.28;5.05;;;6.10;1.00;;;;;;5100167;27;20226;-81
2021/04/25 04:19:04;;;;;;;6.07;5.45;;;6.10;1.00;;;;;;5100123;27;20254;-81
2021/04/25 04:21:30;;;;;;;6.28;5.00;;;6.10;1.00;;;;;;5118768;27;20649;-81
2021/04/25 04:23:56;;;;;;;8.57;6.35;;;6.10;1.00;;;;;;5102853;27;20329;-81
2021/04/25 04:26:23;;;;;;;6.13;5.10;;;6.10;1.00;;;;;;5124943;27;20254;-81
2021/04/25 04:28:49;;;;;;;5.80;5.15;;;6.10;1.00;;;;;;5118580;27;20223;-80
2021/04/25 04:31:17;;;;;;;4.82;4.32;;;6.10;1.00;;;;;;5128304;27;20239;-80
2021/04/25 04:33:44;;;;;;;5.85;5.25;;;6.20;1.00;;;;;;5124419;27;20298;-81
2021/04/25 04:36:10;;;;;;;6.63;4.60;;;6.30;1.00;;;;;;5144689;27;20211;-80
2021/04/25 04:38:36;;;;;;;11.48;4.80;;;6.30;1.00;;;;;;5133890;27;20230;-80
2021/04/25 04:41:03;;;;;;;6.90;4.57;;;6.30;1.00;;;;;;5121053;27;20231;-80
2021/04/25 04:43:29;;;;;;;6.95;4.68;;;6.30;1.00;;;;;;5118213;27;20222;-79
2021/04/25 04:45:55;;;;;;;4.75;4.25;;;6.40;1.00;;;;;;5117109;27;21503;-82
2021/04/25 04:48:23;;;;;;;8.88;4.28;;;6.40;1.00;;;;;;5097314;27;20238;-81
2021/04/25 04:50:50;;;;;;;8.32;4.50;;;6.40;1.00;;;;;;5092217;27;20270;-80
2021/04/25 04:53:16;;;;;;;6.47;3.95;;;6.40;1.00;;;;;;5113715;27;20217;-79
2021/04/25 04:55:42;;;;;;;5.30;4.05;;;6.40;1.00;;;;;;5113703;27;20219;-80
2021/04/25 04:58:08;;;;;;;5.07;3.53;;;6.40;1.00;;;;;;5118142;27;20245;-80
2021/04/25 05:00:35;;;;;;;6.63;4.25;;;6.40;1.00;;;;;;5114018;27;20254;-80
2021/04/25 05:03:01;;;;;;;4.13;3.72;;;6.50;1.00;;;;;;5117163;27;20238;-80
2021/04/25 05:05:28;;;;;;;5.20;3.97;;;6.60;1.00;;;;;;5129622;27;20227;-79
2021/04/25 05:07:54;;;;;;;6.55;4.63;;;6.60;1.00;;;;;;5118908;27;20231;-79
2021/04/25 05:10:20;;;;;;;4.68;3.83;;;6.60;1.00;;;;;;5089675;27;21124;-79
2021/04/25 05:12:47;;;;;;;5.65;4.38;;;6.70;1.00;;;;;;5092297;27;20319;-80
2021/04/25 05:15:13;;;;;;;6.40;4.10;;;6.60;1.00;;;;;;5110511;27;20219;-82
2021/04/25 05:17:39;;;;;;;4.03;3.70;;;6.70;1.00;;;;;;5115776;27;20222;-79
2021/04/25 05:20:06;;;;;;;4.28;3.83;;;6.80;1.00;;;;;;5107860;27;21058;-79
2021/04/25 05:22:33;;;;;;;4.22;3.60;;;6.80;1.00;;;;;;5103834;27;22904;-79
2021/04/25 05:25:00;;;;;;;5.13;4.63;;;6.90;1.00;;;;;;5108073;27;20227;-79
2021/04/25 05:27:26;;;;;;;7.32;4.38;;;6.90;1.00;;;;;;5112202;27;20752;-80
2021/04/25 05:29:52;;;;;;;5.03;4.53;;;7.00;1.00;;;;;;5112097;27;20226;-80
2021/04/25 05:32:18;;;;;;;5.40;4.00;;;7.00;1.00;;;;;;5108911;27;20215;-80
2021/04/25 05:34:45;;;;;;;6.43;3.83;;;7.10;1.00;;;;;;5114935;27;20233;-79
2021/04/25 05:37:11;;;;;;;4.60;3.65;;;7.20;1.00;;;;;;5110950;27;20254;-80
2021/04/25 05:39:38;;;;;;;8.90;4.82;;;7.30;1.00;;;;;;5100743;27;20772;-81
2021/04/25 05:42:05;;;;;;;5.35;4.50;;;7.40;1.00;;;;;;5109583;27;20224;-80
2021/04/25 05:44:31;;;;;;;7.03;3.85;;;7.50;1.00;;;;;;5112965;27;20294;-80
2021/04/25 05:46:57;;;;;;;5.40;4.20;;;7.50;1.00;;;;;;5104359;27;20237;-80
2021/04/25 05:49:23;;;;;;;6.70;3.92;;;7.60;1.00;;;;;;5110377;27;20326;-80
2021/04/25 05:51:50;;;;;;;3.88;3.47;;;7.60;1.00;;;;;;5113264;27;20904;-81
2021/04/25 05:54:16;;;;;;;5.03;3.95;;;7.70;1.00;;;;;;5114335;27;20767;-81
2021/04/25 05:56:43;;;;;;;5.18;3.90;;;7.80;1.00;;;;;;5119270;27;20219;-81
2021/04/25 05:59:09;;;;;;;4.63;3.90;;;7.80;1.00;;;;;;5120482;27;20231;-80
2021/04/25 06:01:36;;;;;;;5.70;3.53;;;7.80;1.00;;;;;;5116702;27;20253;-80
2021/04/25 06:04:04;;;;;;;5.53;3.65;;;7.80;1.00;;;;;;5127430;27;20290;-81
2021/04/25 06:06:30;;;;;;;6.75;3.88;;;7.90;1.00;;;;;;5142181;27;20242;-81
2021/04/25 06:08:56;;;;;;;9.30;3.88;;;8.00;1.00;;;;;;5142247;27;20283;-80
2021/04/25 06:11:22;;;;;;;4.40;3.65;;;8.00;1.00;;;;;;5122392;27;20219;-81
2021/04/25 06:13:49;;;;;;;4.35;3.38;;;8.10;1.00;;;;;;5143451;27;20207;-81
2021/04/25 06:16:16;;;;;;;5.72;3.15;;;8.10;1.00;;;;;;5120495;27;20302;-80
2021/04/25 06:18:42;;;;;;;5.95;3.15;;;8.20;1.00;;;;;;5126691;27;20347;-80
2021/04/25 06:21:08;;;;;;;4.65;3.17;;;8.20;1.00;;;;;;5127769;27;20249;-79
2021/04/25 06:23:34;;;;;;;4.65;3.70;;;8.30;1.00;;;;;;5119919;27;20228;-80
2021/04/25 06:26:01;;;;;;;4.05;3.42;;;8.50;1.00;;;;;;5114935;27;20231;-82
2021/04/25 06:28:28;;;;;;;4.75;3.40;;;8.60;1.00;;;;;;5118321;27;20226;-81
2021/04/25 06:30:56;;;;;;;3.83;3.50;;;8.70;1.00;;;;;;5120540;27;20307;-82
2021/04/25 06:33:22;;;;;;;6.93;3.40;;;8.80;1.00;;;;;;5118582;27;20219;-81
2021/04/25 06:35:49;;;;;;;3.47;3.10;;;8.90;1.00;;;;;;5119761;27;20737;-80
2021/04/25 06:38:15;;;;;;;3.75;2.92;;;9.00;1.00;;;;;;5107015;27;20711;-80
2021/04/25 06:40:42;;;;;;;3.15;2.53;;;9.00;1.00;;;;;;5139209;27;20231;-80
2021/04/25 06:43:08;;;;;;;6.80;3.63;;;9.00;1.00;;;;;;5132940;27;20207;-80
2021/04/25 06:45:35;;;;;;;4.80;3.25;;;9.10;1.00;;;;;;5132865;27;20243;-79
2021/04/25 06:48:03;;;;;;;3.83;3.45;;;9.10;1.00;;;;;;5146682;27;20324;-79
2021/04/25 06:50:29;;;;;;;4.63;3.63;;;9.20;1.00;;;;;;5151286;27;20241;-81
2021/04/25 06:52:55;;;;;;;5.20;3.05;;;9.30;1.00;;;;;;5130435;27;20263;-77
2021/04/25 06:55:24;;;;;;;3.88;2.88;;;9.40;1.00;;;;;;5150055;27;20226;-81
2021/04/25 06:57:51;;;;;;;4.15;2.85;;;9.50;1.00;;;;;;5149672;27;20223;-79
2021/04/25 07:00:19;;;;;;;4.13;3.28;;;9.60;1.00;;;;;;5147408;27;20234;-79
2021/04/25 07:02:46;;;;;;;4.18;2.70;;;9.80;1.00;;;;;;5127753;27;20292;-79
2021/04/25 07:05:15;;;;;;;6.97;3.10;;;10.00;1.00;;;;;;5151837;27;20268;-80
2021/04/25 07:07:41;;;;;;;5.03;2.55;;;10.20;1.00;;;;;;5151479;27;20207;-80
2021/04/25 07:10:09;;;;;;;3.40;2.88;;;10.20;1.00;;;;;;5151459;27;20213;-79
2021/04/25 07:12:36;;;;;;;3.42;3.13;;;10.20;1.00;;;;;;5149657;27;20221;-79
2021/04/25 07:15:02;;;;;;;3.85;2.10;;;10.20;1.00;;;;;;5148323;27;20279;-78
2021/04/25 07:17:29;;;;;;;2.95;2.10;;;10.20;1.00;;;;;;5143970;27;20233;-80
2021/04/25 07:19:55;;;;;;;7.57;2.90;;;10.20;1.00;;;;;;5125109;27;20233;-80
2021/04/25 07:22:22;;;;;;;2.38;1.90;;;10.40;1.00;;;;;;5126801;27;20285;-80
2021/04/25 07:24:49;;;;;;;3.70;2.80;;;10.50;1.00;;;;;;5131302;27;20280;-80
2021/04/25 07:27:16;;;;;;;3.37;2.43;;;10.60;1.00;;;;;;5137531;27;20594;-80
2021/04/25 07:29:42;;;;;;;3.10;1.87;;;10.70;1.00;;;;;;5136656;27;20449;-81
2021/04/25 07:32:08;;;;;;;2.17;1.80;;;10.80;1.00;;;;;;5132824;27;20392;-80
2021/04/25 07:34:35;;;;;;;4.80;2.30;;;10.70;1.00;;;;;;5106849;27;20222;-80
2021/04/25 07:37:04;;;;;;;2.20;1.40;;;10.60;1.00;;;;;;5101333;27;20546;-81
2021/04/25 07:39:31;;;;;;;3.55;2.10;;;10.50;1.00;;;;;;5102266;27;20460;-82
2021/04/25 07:41:58;;;;;;;4.85;1.65;;;10.40;1.00;;;;;;5127068;27;20686;-81
2021/04/25 07:44:24;;;;;;;6.82;2.63;;;10.40;1.00;;;;;;5125070;27;20296;-80
2021/04/25 07:46:51;;;;;;;1.88;1.50;;;10.50;1.00;;;;;;5108131;27;20564;-80
2021/04/25 07:49:17;;;;;;;2.20;1.67;;;10.70;1.00;;;;;;5113001;27;20237;-79
2021/04/25 07:51:43;;;;;;;2.22;1.40;;;10.70;1.00;;;;;;5136769;27;20256;-80
2021/04/25 07:54:10;;;;;;;3.15;2.47;;;10.90;1.00;;;;;;5129221;27;20225;-80
2021/04/25 07:56:37;;;;;;;1.98;1.60;;;10.90;1.00;;;;;;5129383;27;20233;-78
2021/04/25 07:59:03;;;;;;;3.10;2.17;;;10.90;1.00;;;;;;5109467;27;20311;-80
2021/04/25 08:01:30;;;;;;;5.57;1.98;;;10.80;1.00;;;;;;5132120;27;20435;-78
2021/04/25 08:03:57;;;;;;;3.20;1.93;;;10.70;1.00;;;;;;5135104;27;20214;-77
2021/04/25 08:06:25;;;;;;;4.83;2.60;;;10.80;1.00;;;;;;5143105;27;20491;-79
2021/04/25 08:08:51;;;;;;;2.40;1.80;;;11.00;1.00;;;;;;5131745;27;20406;-77
2021/04/25 08:11:17;;;;;;;3.25;2.08;;;11.00;1.00;;;;;;5138385;27;20417;-77
2021/04/25 08:13:45;;;;;;;2.53;1.73;;;11.10;1.00;;;;;;5130043;27;21592;-78
2021/04/25 08:16:11;;;;;;;3.20;1.83;;;11.10;1.00;;;;;;5104085;27;20441;-79
2021/04/25 08:18:37;;;;;;;3.50;1.93;;;11.20;1.00;;;;;;5102075;27;20557;-78
2021/04/25 08:21:04;;;;;;;4.93;2.90;;;11.30;1.00;;;;;;5115013;27;20461;-76
2021/04/25 08:23:30;;;;;;;3.40;1.45;;;11.40;1.00;;;;;;5124930;27;20417;-82
2021/04/25 08:25:57;;;;;;;3.50;1.33;;;11.40;1.00;;;;;;5111531;27;20239;-84
2021/04/25 08:28:24;;;;;;;4.07;1.65;;;11.40;1.00;;;;;;5132479;27;20413;-84
2021/04/25 08:30:51;;;;;;;5.78;2.22;;;11.40;1.00;;;;;;5105587;27;20231;-81
2021/04/25 08:33:18;;;;;;;3.23;2.30;;;11.40;1.00;;;;;;5139746;27;20223;-81
2021/04/25 08:35:51;;;;;;;3.93;2.67;;;11.40;1.00;;;;;;5133831;27;20442;-84
2021/04/25 08:38:20;;;;;;;4.90;2.37;;;11.40;1.00;;;;;;5129181;27;20532;-82
2021/04/25 08:40:47;;;;;;;3.93;2.00;;;11.30;1.00;;;;;;5114137;27;20475;-81
2021/04/25 08:43:14;;;;;;;3.25;2.03;;;11.20;1.00;;;;;;5126438;27;20489;-82
2021/04/25 08:45:43;;;;;;;4.70;2.83;;;10.90;1.00;;;;;;5131396;27;20325;-80
2021/04/25 08:48:13;;;;;;;3.50;2.50;;;10.80;1.00;;;;;;5114028;27;20213;-83
2021/04/25 08:50:41;;;;;;;3.40;2.23;;;10.80;1.00;;;;;;5111897;27;20416;-82
2021/04/25 08:53:11;;;;;;;3.20;2.33;;;11.00;1.00;;;;;;5102749;27;20427;-79
2021/04/25 08:55:40;;;;;;;4.03;2.20;;;11.30;1.00;;;;;;5118548;27;21063;-78
2021/04/25 08:58:07;;;;;;;2.73;2.00;;;11.30;1.00;;;;;;5120015;27;20451;-79
2021/04/25 09:00:35;;;;;;;3.50;2.70;;;11.00;1.00;;;;;;5106920;27;21316;-80
2021/04/25 09:03:01;;;;;;;4.33;2.57;;;10.90;1.00;;;;;;5134657;27;20817;-76
2021/04/25 09:05:28;;;;;;;3.00;2.13;;;11.10;1.00;;;;;;5122277;27;20497;-76
2021/04/25 09:07:56;;;;;;;4.07;2.20;;;11.30;1.00;;;;;;5134136;27;20445;-75
2021/04/25 09:10:30;;;;;;;3.97;2.40;;;11.60;1.00;;;;;;5114104;27;20566;-80
2021/04/25 09:12:56;;;;;;;3.20;2.27;;;11.90;1.00;;;;;;5111160;27;20413;-77
2021/04/25 09:15:40;;;;;;;4.77;2.37;;;12.30;1.00;;;;;;5105793;27;20443;-77
2021/04/25 09:18:07;;;;;;;4.77;3.00;;;12.40;1.00;;;;;;5116114;27;20433;-76
2021/04/25 09:20:40;;;;;;;2.77;2.23;;;12.30;1.00;;;;;;5094422;27;20440;-76
2021/04/25 09:23:08;;;;;;;7.30;3.70;;;12.20;1.00;;;;;;5113694;27;20448;-79
2021/04/25 09:25:34;;;;;;;3.10;2.70;;;12.20;1.00;;;;;;5109885;27;21989;-75
2021/04/25 09:28:12;;;;;;;5.57;3.03;;;12.20;1.00;;;;;;5116510;27;20429;-76
2021/04/25 09:30:38;;;;;;;3.13;2.10;;;12.10;1.00;;;;;;5116901;27;20936;-78
2021/04/25 09:33:09;;;;;;;6.90;2.40;;;11.90;1.00;;;;;;5115459;27;20594;-78
2021/04/25 09:35:35;;;;;;;4.50;2.80;;;11.70;1.00;;;;;;5111791;27;20448;-77
2021/04/25 09:38:10;;;;;;;3.47;2.37;;;11.40;1.00;;;;;;5117882;27;20419;-76
2021/04/25 09:40:44;;;;;;;7.00;2.65;;;11.10;1.00;;;;;;5117737;27;20452;-77
2021/04/25 09:43:12;;;;;;;4.93;2.40;;;10.90;1.00;;;;;;5098922;27;20229;-75
2021/04/25 09:45:40;;;;;;;4.50;2.55;;;10.70;1.00;;;;;;5125575;27;20500;-76
2021/04/25 09:48:21;;;;;;;5.15;2.97;;;10.50;1.00;;;;;;5098571;27;20236;-75
2021/04/25 09:51:06;;;;;;;6.75;6.15;;;10.10;1.00;;;;;;5115269;27;20226;-76
2021/04/25 09:53:33;;;;;;;2.80;2.50;;;9.80;1.00;;;;;;5099108;27;20340;-78
2021/04/25 09:56:00;;;;;;;5.22;2.78;;;9.60;1.00;;;;;;5116329;27;20454;-77
2021/04/25 09:58:27;;;;;;;2.67;2.47;;;9.50;1.00;;;;;;5095957;27;20228;-78
2021/04/25 10:00:55;;;;;;;3.90;2.25;;;9.60;1.00;;;;;;5115818;27;20217;-79
2021/04/25 10:03:22;;;;;;;4.10;2.30;;;9.80;1.00;;;;;;5133980;27;20290;-75
2021/04/25 10:05:59;;;;;;;2.37;2.07;;;10.10;1.00;;;;;;5134661;27;20437;-77
2021/04/25 10:08:29;;;;;;;4.10;2.50;;;10.50;1.00;;;;;;5112394;27;20437;-78
2021/04/25 10:10:57;;;;;;;3.38;2.40;;;11.10;1.00;;;;;;5096972;27;20463;-77
2021/04/25 10:13:24;;;;;;;3.40;3.00;;;11.40;1.00;;;;;;5115921;27;20241;-79
2021/04/25 10:15:51;;;;;;;4.70;3.20;;;11.60;1.00;;;;;;5118636;27;20457;-79
2021/04/25 10:18:18;;;;;;;4.03;2.63;;;11.50;1.00;;;;;;5117251;27;20433;-78
2021/04/25 10:20:46;;;;;;;3.10;2.80;;;11.80;1.00;;;;;;5118483;27;20449;-78
2021/04/25 10:23:13;;;;;;;4.93;2.50;;;13.10;1.00;;;;;;5120927;27;20441;-79
2021/04/25 10:25:39;;;;;;;3.90;2.43;;;13.60;1.00;;;;;;5121114;27;20455;-78
2021/04/25 10:28:10;;;;;;;2.50;2.30;;;13.70;1.00;;;;;;5119796;27;20483;-80
2021/04/25 10:30:39;;;;;;;5.03;3.67;;;14.40;1.00;;;;;;5119327;27;20448;-78
2021/04/25 10:33:06;;;;;;;3.43;2.87;;;14.70;1.00;;;;;;5120180;27;20473;-83
2021/04/25 10:35:34;;;;;;;4.43;2.50;;;14.70;1.00;;;;;;5122800;27;20504;-81
2021/04/25 10:38:02;;;;;;;3.63;2.57;;;14.50;1.00;;;;;;5125852;27;20465;-81
2021/04/25 10:40:33;;;;;;;1.77;1.47;;;14.90;1.00;;;;;;5121901;27;20425;-82
2021/04/25 10:43:08;;;;;;;2.03;1.87;;;16.50;1.00;;;;;;5137855;27;20411;-84
2021/04/25 10:45:53;;;;;;;4.30;2.40;;;17.70;1.00;;;;;;5153711;27;20392;-83
2021/04/25 10:48:25;;;;;;;2.60;1.70;;;18.10;1.00;;;;;;5146181;27;20447;-83
2021/04/25 10:50:53;;;;;;;4.40;2.53;;;19.30;1.00;;;;;;5128451;27;20434;-84
2021/04/25 10:53:25;;;;;;;2.20;1.70;;;20.40;1.00;;;;;;5145184;27;20431;-84
2021/04/25 10:56:07;;;;;;;3.37;1.47;;;21.30;1.00;;;;;;5123452;27;20948;-84
2021/04/25 10:58:34;;;;;;;2.77;1.97;;;22.20;1.00;;;;;;5140402;27;20434;-81
2021/04/25 11:01:01;;;;;;;3.50;2.10;;;22.70;1.00;;;;;;5138754;27;20535;-82
2021/04/25 11:03:41;;;;;;;3.07;1.67;;;23.70;1.00;;;;;;5132150;27;20476;-82
2021/04/25 11:06:25;;;;;;;2.73;1.77;;;24.30;1.00;;;;;;5139017;27;20976;-80
2021/04/25 11:08:51;;;;;;;5.50;1.90;;;24.70;1.00;;;;;;5131623;27;20457;-83
2021/04/25 11:11:31;;;;;;;2.97;2.13;;;25.30;1.00;;;;;;5133832;27;20411;-82
2021/04/25 11:13:59;;;;;;;1.90;1.70;;;25.80;1.00;;;;;;5120566;27;20433;-83
2021/04/25 11:16:27;;;;;;;2.30;1.40;;;26.50;1.00;;;;;;5131706;27;20427;-82
2021/04/25 11:18:56;;;;;;;2.97;2.03;;;26.00;1.00;;;;;;5134624;27;20433;-81
2021/04/25 11:21:50;;;;;;;1.97;1.10;;;25.50;1.00;;;;;;5123256;27;20479;-83
2021/04/25 11:24:44;;;;;;;3.93;1.90;;;25.90;1.00;;;;;;5132104;27;20448;-83
2021/04/25 11:27:34;;;;;;;2.00;1.80;;;26.20;1.00;;;;;;5073667;27;20465;-80
2021/04/25 11:30:02;;;;;;;2.90;1.93;;;26.50;1.00;;;;;;5135403;27;20417;-81
2021/04/25 11:32:34;;;;;;;2.00;1.70;;;25.40;1.00;;;;;;5117235;27;20492;-80
2021/04/25 11:35:08;;;;;;;2.30;1.57;;;25.00;1.00;;;;;;5127791;27;21412;-82
2021/04/25 11:37:35;;;;;;;3.80;2.37;;;25.60;1.00;;;;;;5127813;27;20504;-82
2021/04/25 11:40:06;;;;;;;3.87;3.20;;;24.80;1.00;;;;;;5115139;27;20450;-82
2021/04/25 11:42:37;;;;;;;4.97;2.50;;;25.00;1.00;;;;;;5108017;27;20446;-80
2021/04/25 11:45:07;;;;;;;3.07;2.00;;;24.90;1.00;;;;;;5131434;27;21204;-81
2021/04/25 11:47:34;;;;;;;1.60;1.50;;;23.50;1.00;;;;;;5133641;27;20451;-81
2021/04/25 11:50:03;;;;;;;3.00;1.50;;;21.50;1.00;;;;;;5133586;27;20465;-84
2021/04/25 11:52:32;;;;;;;2.33;1.40;;;20.20;1.00;;;;;;5127861;27;20527;-80
2021/04/25 11:55:04;;;;;;;1.70;1.33;;;19.00;1.00;;;;;;5137463;27;20972;-81
2021/04/25 11:57:32;;;;;;;2.80;1.10;;;17.70;1.00;;;;;;5128119;27;21028;-81
2021/04/25 12:00:06;;;;;;;1.67;1.10;;;16.80;1.00;;;;;;5126069;27;20458;-82
2021/04/25 12:02:33;;;;;;;1.57;1.00;;;16.70;1.00;;;;;;5122441;27;20470;-81
2021/04/25 12:05:02;;;;;;;2.80;1.60;;;17.70;1.00;;;;;;5135643;27;20455;-82
2021/04/25 12:07:34;;;;;;;2.23;1.63;;;20.00;1.00;;;;;;5132739;27;20401;-80
2021/04/25 12:10:01;;;;;;;2.53;1.03;;;22.40;1.00;;;;;;5123400;27;20520;-80
2021/04/25 12:12:30;;;;;;;5.20;2.23;;;24.70;1.00;;;;;;5099766;27;20452;-82
2021/04/25 12:15:04;;;;;;;5.40;1.80;;;24.00;1.00;;;;;;5103338;27;20538;-81
2021/04/25 12:17:31;;;;;;;2.43;2.10;;;22.10;1.00;;;;;;5102698;27;21241;-81
2021/04/25 12:19:59;;;;;;;1.50;1.30;;;20.60;1.00;;;;;;5118118;27;20539;-80
2021/04/25 12:22:25;;;;;;;2.17;1.00;;;18.90;1.00;;;;;;5098718;27;20591;-80
2021/04/25 12:24:55;;;;;;;1.97;1.77;;;18.00;1.00;;;;;;5125652;27;20964;-79
2021/04/25 12:27:21;;;;;;;2.43;1.00;;;17.30;1.00;;;;;;5119814;27;20460;-78
2021/04/25 12:29:48;;;;;;;4.30;2.30;;;17.00;1.00;;;;;;5115539;27;20453;-82
2021/04/25 12:32:19;;;;;;;1.30;1.17;;;17.60;1.00;;;;;;5102166;27;21727;-81
2021/04/25 12:34:59;;;;;;;1.40;1.20;;;19.80;1.00;;;;;;5118309;27;21724;-80
2021/04/25 12:37:39;;;;;;;5.33;2.50;;;21.40;1.00;;;;;;5123165;27;20481;-79
2021/04/25 12:40:26;;;;;;;1.00;0.90;;;22.00;1.00;;;;;;5118857;27;21345;-81
2021/04/25 12:43:07;;;;;;;2.10;1.77;;;21.90;1.00;;;;;;5122414;27;21025;-78
2021/04/25 12:45:33;;;;;;;3.60;2.70;;;22.90;1.00;;;;;;5113143;27;20455;-80
2021/04/25 12:48:38;;;;;;;1.00;0.83;;;23.70;1.00;;;;;;5123632;27;20479;-80
2021/04/25 12:51:16;;;;;;;1.43;0.87;;;23.20;1.00;;;;;;5122762;27;20617;-80
2021/04/25 12:53:46;;;;;;;5.70;1.20;;;22.20;1.00;;;;;;5130316;27;21412;-79
2021/04/25 12:56:20;;;;;;;2.03;1.00;;;21.50;1.00;;;;;;5134304;27;20426;-79
2021/04/25 12:59:18;;;;;;;2.63;2.20;;;21.40;1.00;;;;;;5103709;27;20505;-79
2021/04/25 13:01:48;;;;;;;2.50;1.10;;;21.50;1.00;;;;;;5117310;27;20490;-79
2021/04/25 13:04:26;;;;;;;1.37;1.13;;;21.20;1.00;;;;;;5118705;27;20486;-80
2021/04/25 13:07:11;;;;;;;2.40;1.30;;;20.20;1.00;;;;;;5117611;27;20480;-80
2021/04/25 13:09:38;;;;;;;2.40;1.50;;;19.60;1.00;;;;;;5119878;27;20402;-80